createdAt,value
2023-04-12T00:01:52.525Z,13.37
2023-04-12T00:04:22.911Z,13.39
2023-04-12T00:06:49.861Z,13.44
2023-04-12T00:09:16.799Z,13.46
2023-04-12T00:11:43.638Z,13.48
2023-04-12T00:14:10.570Z,13.50
2023-04-12T00:16:39.020Z,13.50
2023-04-12T00:19:06.826Z,13.55
2023-04-12T00:21:33.665Z,13.54
2023-04-12T00:24:00.365Z,13.56
2023-04-12T00:26:28.124Z,13.58
2023-04-12T00:28:54.902Z,13.59
2023-04-12T00:31:21.821Z,13.61
2023-04-12T00:33:48.622Z,13.62
2023-04-12T00:36:15.953Z,13.59
2023-04-12T00:38:42.878Z,13.63
2023-04-12T00:41:10.210Z,13.62
2023-04-12T00:43:41.876Z,13.61
2023-04-12T00:46:09.755Z,13.60
2023-04-12T00:48:37.883Z,13.58
2023-04-12T00:51:07.516Z,13.61
2023-04-12T00:53:34.474Z,13.62
2023-04-12T00:56:04.306Z,13.60
2023-04-12T00:58:32.048Z,13.62
2023-04-12T01:01:01.766Z,13.63
2023-04-12T01:03:30.857Z,13.62
2023-04-12T01:06:09.805Z,13.64
2023-04-12T01:08:46.708Z,13.61
2023-04-12T01:11:17.739Z,13.62
2023-04-12T01:14:03.732Z,13.63
2023-04-12T01:16:42.136Z,13.61
2023-04-12T01:19:28.687Z,13.61
2023-04-12T01:22:18.221Z,13.61
2023-04-12T01:25:04.592Z,13.55
2023-04-12T01:27:46.461Z,13.53
2023-04-12T01:30:17.070Z,13.53
2023-04-12T01:32:51.513Z,13.52
2023-04-12T01:35:21.502Z,13.48
2023-04-12T01:37:48.625Z,13.52
2023-04-12T01:40:19.113Z,13.52
2023-04-12T01:42:46.051Z,13.55
2023-04-12T01:45:12.761Z,13.52
2023-04-12T01:47:39.934Z,13.51
2023-04-12T01:50:23.863Z,13.52
2023-04-12T01:53:01.381Z,13.50
2023-04-12T01:55:31.341Z,13.50
2023-04-12T01:58:01.059Z,13.47
2023-04-12T02:00:29.058Z,13.50
2023-04-12T02:02:57.837Z,13.46
2023-04-12T02:05:25.491Z,13.48
2023-04-12T02:07:52.950Z,13.47
2023-04-12T02:10:30.004Z,13.49
2023-04-12T02:13:01.064Z,13.48
2023-04-12T02:15:29.145Z,13.47
2023-04-12T02:17:56.453Z,13.45
2023-04-12T02:20:24.646Z,13.45
2023-04-12T02:22:53.932Z,13.45
2023-04-12T02:25:20.982Z,13.46
2023-04-12T02:27:48.729Z,13.46
2023-04-12T02:30:16.164Z,13.45
2023-04-12T02:32:46.296Z,13.46
2023-04-12T02:35:20.329Z,13.47
2023-04-12T02:37:53.414Z,13.47
2023-04-12T02:40:22.039Z,13.47
2023-04-12T02:42:48.994Z,13.45
2023-04-12T02:45:15.973Z,13.46
2023-04-12T02:47:43.539Z,13.45
2023-04-12T02:50:11.504Z,13.44
2023-04-12T02:52:49.175Z,13.44
2023-04-12T02:55:17.326Z,13.44
2023-04-12T02:57:48.587Z,13.48
2023-04-12T03:00:16.953Z,13.50
2023-04-12T03:02:49.946Z,13.49
2023-04-12T03:05:22.545Z,13.46
2023-04-12T03:07:50.564Z,13.43
2023-04-12T03:10:21.377Z,13.43
2023-04-12T03:12:54.964Z,13.43
2023-04-12T03:15:23.610Z,13.43
2023-04-12T03:17:52.361Z,13.44
2023-04-12T03:20:24.585Z,13.45
2023-04-12T03:23:02.632Z,13.45
2023-04-12T03:25:31.764Z,13.45
2023-04-12T03:28:08.880Z,13.44
2023-04-12T03:30:46.638Z,13.44
2023-04-12T03:33:16.301Z,13.43
2023-04-12T03:35:45.433Z,13.45
2023-04-12T03:38:14.206Z,13.42
2023-04-12T03:40:44.812Z,13.47
2023-04-12T03:43:11.536Z,13.42
2023-04-12T03:45:38.344Z,13.46
2023-04-12T03:48:06.340Z,13.44
2023-04-12T03:50:45.059Z,13.46
2023-04-12T03:53:19.579Z,13.46
2023-04-12T03:55:47.751Z,13.47
2023-04-12T03:58:16.393Z,13.48
2023-04-12T04:00:45.364Z,13.48
2023-04-12T04:03:15.128Z,13.50
2023-04-12T04:05:48.084Z,13.50
2023-04-12T04:08:18.097Z,13.54
2023-04-12T04:10:52.310Z,13.56
2023-04-12T04:13:22.097Z,13.56
2023-04-12T04:16:00.594Z,13.58
2023-04-12T04:18:28.531Z,13.55
2023-04-12T04:20:55.409Z,13.49
2023-04-12T04:23:23.406Z,13.57
2023-04-12T04:25:50.586Z,13.59
2023-04-12T04:28:18.332Z,13.57
2023-04-12T04:30:46.280Z,13.60
2023-04-12T04:33:16.133Z,13.59
2023-04-12T04:35:43.922Z,13.63
2023-04-12T04:38:26.365Z,13.63
2023-04-12T04:41:04.636Z,13.63
2023-04-12T04:43:46.900Z,13.63
2023-04-12T04:46:17.274Z,13.62
2023-04-12T04:48:44.166Z,13.66
2023-04-12T04:51:10.933Z,13.67
2023-04-12T04:53:38.463Z,13.68
2023-04-12T04:56:05.548Z,13.69
2023-04-12T04:58:34.980Z,13.65
2023-04-12T05:01:01.837Z,13.59
2023-04-12T05:03:31.002Z,13.60
2023-04-12T05:05:59.748Z,13.57
2023-04-12T05:08:27.766Z,13.59
2023-04-12T05:10:56.209Z,13.54
2023-04-12T05:13:25.438Z,13.52
2023-04-12T05:15:52.192Z,13.53
2023-04-12T05:18:20.580Z,13.51
2023-04-12T05:20:48.511Z,13.53
2023-04-12T05:23:15.805Z,13.48
2023-04-12T05:25:48.302Z,13.50
2023-04-12T05:28:17.414Z,13.50
2023-04-12T05:30:48.111Z,13.48
2023-04-12T05:33:20.127Z,13.48
2023-04-12T05:35:48.744Z,13.49
2023-04-12T05:38:15.655Z,13.38
2023-04-12T05:40:45.561Z,13.52
2023-04-12T05:43:14.600Z,13.52
2023-04-12T05:45:41.728Z,13.48
2023-04-12T05:48:09.704Z,13.52
2023-04-12T05:50:36.623Z,13.56
2023-04-12T05:53:03.608Z,13.58
2023-04-12T05:55:32.906Z,13.55
2023-04-12T05:58:01.266Z,13.53
2023-04-12T06:00:29.032Z,13.57
2023-04-12T06:02:57.254Z,13.61
2023-04-12T06:05:24.263Z,13.55
2023-04-12T06:07:50.969Z,13.54
2023-04-12T06:10:18.528Z,13.55
2023-04-12T06:12:50.734Z,13.45
2023-04-12T06:15:21.093Z,13.56
2023-04-12T06:17:53.330Z,13.50
2023-04-12T06:20:20.272Z,13.54
2023-04-12T06:22:46.952Z,13.52
2023-04-12T06:25:16.725Z,13.56
2023-04-12T06:27:46.195Z,13.56
2023-04-12T06:30:14.880Z,13.55
2023-04-12T06:32:42.411Z,13.55
2023-04-12T06:35:09.346Z,13.54
2023-04-12T06:37:36.205Z,13.50
2023-04-12T06:40:02.977Z,13.54
2023-04-12T06:42:29.805Z,13.55
2023-04-12T06:44:56.756Z,13.53
2023-04-12T06:47:25.357Z,13.57
2023-04-12T06:49:56.289Z,13.57
2023-04-12T06:52:26.822Z,13.58
2023-04-12T06:54:56.135Z,13.61
2023-04-12T06:57:22.818Z,13.60
2023-04-12T06:59:49.520Z,13.63
2023-04-12T07:02:16.441Z,13.60
2023-04-12T07:04:43.117Z,13.62
2023-04-12T07:07:10.443Z,13.62
2023-04-12T07:09:37.187Z,13.64
2023-04-12T07:12:04.143Z,13.61
2023-04-12T07:14:30.890Z,13.62
2023-04-12T07:16:57.639Z,13.60
2023-04-12T07:19:24.343Z,13.63
2023-04-12T07:21:51.206Z,13.64
2023-04-12T07:24:17.932Z,13.64
2023-04-12T07:26:44.710Z,13.65
2023-04-12T07:29:11.450Z,13.67
2023-04-12T07:31:38.445Z,13.67
2023-04-12T07:34:05.230Z,13.69
2023-04-12T07:36:32.231Z,13.72
2023-04-12T07:38:59.183Z,13.71
2023-04-12T07:41:26.237Z,13.73
2023-04-12T07:43:52.924Z,13.74
2023-04-12T07:46:19.768Z,13.75
2023-04-12T07:48:46.910Z,13.76
2023-04-12T07:51:13.714Z,13.76
2023-04-12T07:53:42.039Z,13.79
2023-04-12T07:56:11.385Z,13.81
2023-04-12T07:58:38.125Z,13.81
2023-04-12T08:01:05.093Z,13.82
2023-04-12T08:03:31.930Z,13.80
2023-04-12T08:05:59.031Z,13.82
2023-04-12T08:08:26.021Z,13.83
2023-04-12T08:10:52.899Z,13.83
2023-04-12T08:13:20.124Z,13.84
2023-04-12T08:15:47.819Z,13.87
2023-04-12T08:18:14.867Z,13.87
2023-04-12T08:20:44.015Z,13.87
2023-04-12T08:23:13.608Z,13.92
2023-04-12T08:25:41.173Z,13.91
2023-04-12T08:28:11.027Z,13.92
2023-04-12T08:30:37.911Z,13.92
2023-04-12T08:33:05.201Z,13.95
2023-04-12T08:35:32.709Z,13.91
2023-04-12T08:38:06.715Z,13.93
2023-04-12T08:40:33.966Z,13.97
2023-04-12T08:43:07.707Z,13.94
2023-04-12T08:45:36.361Z,13.95
2023-04-12T08:48:05.778Z,13.98
2023-04-12T08:50:33.040Z,13.94
2023-04-12T08:53:00.121Z,13.93
2023-04-12T08:55:26.980Z,13.91
2023-04-12T08:57:56.452Z,13.88
2023-04-12T09:00:23.660Z,13.93
2023-04-12T09:02:50.653Z,13.94
2023-04-12T09:05:17.898Z,13.95
2023-04-12T09:07:44.740Z,14.01
2023-04-12T09:10:29.580Z,14.03
2023-04-12T09:12:56.468Z,14.03
2023-04-12T09:15:23.222Z,14.01
2023-04-12T09:18:02.541Z,14.00
2023-04-12T09:20:29.528Z,14.10
2023-04-12T09:22:56.695Z,14.07
2023-04-12T09:25:38.395Z,14.08
2023-04-12T09:28:19.625Z,14.06
2023-04-12T09:30:51.773Z,14.06
2023-04-12T09:33:23.416Z,14.05
2023-04-12T09:35:50.406Z,14.07
2023-04-12T09:38:17.344Z,14.10
2023-04-12T09:40:44.199Z,14.13
2023-04-12T09:43:11.320Z,14.14
2023-04-12T09:45:41.279Z,14.15
2023-04-12T09:48:17.646Z,14.21
2023-04-12T09:50:45.839Z,14.25
2023-04-12T09:53:19.230Z,14.30
2023-04-12T09:55:47.924Z,14.37
2023-04-12T09:58:20.786Z,14.37
2023-04-12T10:00:48.325Z,14.39
2023-04-12T10:03:15.298Z,14.43
2023-04-12T10:05:42.420Z,14.50
2023-04-12T10:08:12.906Z,14.50
2023-04-12T10:10:41.925Z,14.66
2023-04-12T10:13:11.544Z,14.70
2023-04-12T10:15:39.865Z,14.78
2023-04-12T10:18:11.374Z,14.79
2023-04-12T10:20:41.570Z,14.89
2023-04-12T10:23:10.512Z,14.86
2023-04-12T10:25:39.098Z,14.79
2023-04-12T10:28:21.871Z,14.82
2023-04-12T10:30:51.010Z,14.74
2023-04-12T10:33:20.715Z,14.71
2023-04-12T10:36:00.958Z,14.71
2023-04-12T10:38:33.621Z,14.68
2023-04-12T10:41:16.727Z,14.73
2023-04-12T10:43:47.960Z,14.88
2023-04-12T10:46:45.880Z,15.13
2023-04-12T10:49:14.230Z,15.22
2023-04-12T10:52:04.301Z,15.18
2023-04-12T10:54:35.817Z,15.14
2023-04-12T10:57:06.705Z,15.18
2023-04-12T10:59:57.600Z,15.15
2023-04-12T11:02:24.668Z,15.21
2023-04-12T11:05:23.483Z,15.19
2023-04-12T11:07:56.287Z,15.21
2023-04-12T11:10:46.983Z,15.24
2023-04-12T11:13:29.304Z,15.26
2023-04-12T11:15:57.745Z,15.39
2023-04-12T11:18:25.534Z,15.58
2023-04-12T11:20:52.956Z,15.64
2023-04-12T11:23:19.993Z,15.59
2023-04-12T11:25:53.086Z,15.52
2023-04-12T11:28:28.640Z,15.59
2023-04-12T11:30:57.697Z,15.59
2023-04-12T11:33:33.112Z,15.61
2023-04-12T11:36:03.080Z,15.61
2023-04-12T11:38:29.972Z,15.63
2023-04-12T11:40:56.785Z,15.61
2023-04-12T11:43:23.836Z,15.58
2023-04-12T11:45:59.308Z,15.54
2023-04-12T11:48:28.851Z,15.49
2023-04-12T11:51:10.375Z,15.46
2023-04-12T11:53:39.148Z,15.48
2023-04-12T11:56:06.421Z,15.59
2023-04-12T11:58:33.221Z,15.58
2023-04-12T12:01:00.369Z,15.66
2023-04-12T12:03:27.927Z,15.65
2023-04-12T12:05:55.406Z,15.67
2023-04-12T12:08:24.529Z,15.66
2023-04-12T12:11:00.483Z,15.53
2023-04-12T12:13:57.036Z,15.48
2023-04-12T12:16:33.043Z,15.54
2023-04-12T12:19:04.394Z,15.61
2023-04-12T12:21:31.684Z,15.58
2023-04-12T12:23:58.820Z,15.59
2023-04-12T12:26:28.321Z,15.54
2023-04-12T12:28:57.373Z,15.56
2023-04-12T12:31:27.489Z,15.80
2023-04-12T12:33:58.773Z,15.92
2023-04-12T12:36:33.656Z,15.92
2023-04-12T12:39:07.392Z,16.02
2023-04-12T12:41:34.597Z,16.03
2023-04-12T12:44:01.543Z,16.17
2023-04-12T12:46:40.684Z,15.94
2023-04-12T12:49:15.689Z,15.84
2023-04-12T12:51:43.053Z,15.80
2023-04-12T12:54:10.030Z,15.89
2023-04-12T12:56:37.061Z,15.86
2023-04-12T12:59:04.292Z,15.84
2023-04-12T13:01:31.080Z,15.97
2023-04-12T13:03:58.991Z,16.04
2023-04-12T13:06:27.205Z,15.97
2023-04-12T13:08:55.357Z,16.05
2023-04-12T13:11:22.175Z,15.95
2023-04-12T13:13:49.003Z,16.19
2023-04-12T13:16:15.809Z,16.36
2023-04-12T13:18:43.199Z,16.52
2023-04-12T13:21:09.923Z,16.64
2023-04-12T13:23:36.860Z,16.74
2023-04-12T13:26:03.920Z,16.88
2023-04-12T13:28:30.719Z,16.85
2023-04-12T13:30:57.411Z,16.88
2023-04-12T13:33:24.424Z,16.72
2023-04-12T13:35:51.224Z,17.00
2023-04-12T13:38:18.171Z,17.19
2023-04-12T13:40:44.919Z,17.36
2023-04-12T13:43:14.414Z,17.51
2023-04-12T13:45:41.593Z,17.49
2023-04-12T13:48:08.529Z,17.47
2023-04-12T13:50:35.512Z,17.44
2023-04-12T13:53:02.252Z,17.50
2023-04-12T13:55:29.032Z,17.42
2023-04-12T13:57:55.959Z,17.45
2023-04-12T14:00:23.226Z,17.38
2023-04-12T14:02:50.114Z,17.36
2023-04-12T14:05:17.013Z,17.43
2023-04-12T14:07:44.317Z,17.40
2023-04-12T14:10:11.152Z,17.45
2023-04-12T14:12:37.870Z,17.46
2023-04-12T14:15:05.932Z,17.64
2023-04-12T14:17:33.067Z,17.56
2023-04-12T14:20:00.654Z,17.64
2023-04-12T14:22:28.133Z,17.56
2023-04-12T14:24:55.276Z,17.55
2023-04-12T14:27:22.541Z,17.73
2023-04-12T14:29:49.621Z,17.82
2023-04-12T14:32:17.961Z,17.85
2023-04-12T14:34:45.017Z,17.87
2023-04-12T14:37:11.955Z,17.70
2023-04-12T14:39:38.761Z,17.69
2023-04-12T14:42:05.907Z,17.48
2023-04-12T14:44:32.789Z,17.59
2023-04-12T14:46:59.558Z,17.65
2023-04-12T14:49:26.417Z,17.74
2023-04-12T14:51:53.217Z,17.80
2023-04-12T14:54:20.778Z,17.72
2023-04-12T14:56:53.484Z,17.76
2023-04-12T14:59:22.560Z,17.75
2023-04-12T15:01:49.511Z,17.58
2023-04-12T15:04:16.713Z,17.38
2023-04-12T15:06:45.079Z,17.44
2023-04-12T15:09:14.077Z,17.40
2023-04-12T15:11:46.303Z,17.25
2023-04-12T15:14:19.911Z,17.09
2023-04-12T15:16:49.225Z,17.11
2023-04-12T15:19:21.134Z,17.05
2023-04-12T15:21:54.991Z,17.14
2023-04-12T15:24:22.566Z,17.04
2023-04-12T15:26:51.585Z,17.02
2023-04-12T15:29:19.988Z,17.04
2023-04-12T15:31:49.104Z,17.02
2023-04-12T15:34:16.104Z,16.86
2023-04-12T15:36:46.001Z,16.90
2023-04-12T15:39:14.846Z,16.76
2023-04-12T15:41:42.986Z,16.83
2023-04-12T15:44:13.341Z,16.80
2023-04-12T15:46:41.857Z,16.76
2023-04-12T15:49:09.150Z,16.78
2023-04-12T15:51:36.198Z,16.77
2023-04-12T15:54:05.472Z,16.89
2023-04-12T15:56:32.659Z,17.12
2023-04-12T15:59:01.355Z,17.17
2023-04-12T16:01:28.621Z,17.30
2023-04-12T16:03:55.745Z,17.26
2023-04-12T16:06:23.319Z,17.36
2023-04-12T16:08:51.713Z,17.42
2023-04-12T16:11:20.225Z,17.40
2023-04-12T16:13:48.639Z,17.40
2023-04-12T16:16:17.751Z,17.37
2023-04-12T16:18:45.735Z,17.27
2023-04-12T16:21:16.813Z,17.10
2023-04-12T16:23:44.495Z,17.02
2023-04-12T16:26:12.390Z,17.11
2023-04-12T16:28:42.902Z,17.11
2023-04-12T16:31:10.496Z,17.14
2023-04-12T16:33:37.647Z,16.96
2023-04-12T16:36:04.610Z,16.92
2023-04-12T16:38:32.193Z,16.75
2023-04-12T16:40:58.892Z,16.65
2023-04-12T16:43:25.974Z,16.57
2023-04-12T16:45:52.638Z,16.56
2023-04-12T16:48:22.589Z,16.54
2023-04-12T16:50:49.550Z,16.60
2023-04-12T16:53:16.960Z,16.54
2023-04-12T16:55:47.329Z,16.69
2023-04-12T16:58:15.602Z,16.80
2023-04-12T17:00:46.276Z,16.80
2023-04-12T17:03:13.224Z,16.78
2023-04-12T17:05:42.828Z,16.74
2023-04-12T17:08:09.848Z,16.55
2023-04-12T17:10:37.282Z,16.49
2023-04-12T17:13:04.651Z,16.50
2023-04-12T17:15:31.575Z,16.46
2023-04-12T17:18:06.802Z,16.46
2023-04-12T17:20:34.347Z,16.31
2023-04-12T17:23:01.547Z,16.19
2023-04-12T17:25:31.166Z,15.99
2023-04-12T17:27:59.868Z,15.83
2023-04-12T17:30:27.357Z,15.64
2023-04-12T17:32:54.430Z,15.59
2023-04-12T17:35:21.356Z,15.64
2023-04-12T17:37:48.444Z,15.50
2023-04-12T17:40:15.546Z,15.57
2023-04-12T17:42:43.606Z,15.47
2023-04-12T17:45:12.669Z,15.47
2023-04-12T17:47:42.922Z,15.33
2023-04-12T17:50:11.280Z,15.19
2023-04-12T17:52:38.587Z,15.08
2023-04-12T17:55:07.620Z,15.06
2023-04-12T17:57:34.787Z,15.15
2023-04-12T18:00:01.903Z,15.07
2023-04-12T18:02:40.152Z,14.93
2023-04-12T18:05:07.733Z,14.79
2023-04-12T18:07:36.030Z,14.67
2023-04-12T18:10:03.269Z,14.55
2023-04-12T18:12:30.328Z,14.69
2023-04-12T18:14:57.457Z,14.72
2023-04-12T18:17:26.430Z,14.73
2023-04-12T18:19:54.333Z,14.80
2023-04-12T18:22:21.775Z,14.79
2023-04-12T18:24:48.687Z,14.55
2023-04-12T18:27:15.792Z,14.44
2023-04-12T18:29:42.652Z,14.34
2023-04-12T18:32:09.569Z,14.51
2023-04-12T18:34:36.918Z,14.58
2023-04-12T18:37:06.105Z,14.61
2023-04-12T18:39:35.141Z,14.52
2023-04-12T18:42:03.659Z,14.56
2023-04-12T18:44:31.487Z,14.60
2023-04-12T18:46:59.373Z,14.56
2023-04-12T18:49:26.591Z,14.47
2023-04-12T18:51:58.319Z,14.44
2023-04-12T18:54:28.000Z,14.55
2023-04-12T18:56:55.157Z,14.59
2023-04-12T18:59:22.389Z,14.46
2023-04-12T19:01:49.568Z,14.37
2023-04-12T19:04:16.916Z,14.25
2023-04-12T19:06:45.090Z,14.18
2023-04-12T19:09:13.621Z,14.22
2023-04-12T19:11:40.635Z,14.25
2023-04-12T19:14:10.887Z,14.30
2023-04-12T19:16:38.738Z,14.30
2023-04-12T19:19:05.948Z,14.26
2023-04-12T19:21:34.270Z,14.28
2023-04-12T19:24:01.571Z,14.29
2023-04-12T19:26:30.356Z,14.30
2023-04-12T19:28:59.144Z,14.32
2023-04-12T19:31:26.571Z,14.28
2023-04-12T19:33:57.394Z,14.23
2023-04-12T19:36:24.985Z,14.19
2023-04-12T19:38:53.956Z,14.15
2023-04-12T19:41:21.169Z,14.17
2023-04-12T19:43:48.262Z,14.20
2023-04-12T19:46:17.575Z,14.18
2023-04-12T19:48:45.645Z,14.10
2023-04-12T19:51:13.493Z,14.06
2023-04-12T19:53:42.076Z,14.07
2023-04-12T19:56:13.038Z,14.11
2023-04-12T19:58:41.798Z,14.13
2023-04-12T20:01:10.013Z,14.16
2023-04-12T20:03:40.014Z,14.14
2023-04-12T20:06:07.148Z,14.13
2023-04-12T20:08:37.452Z,14.19
2023-04-12T20:11:05.132Z,14.16
2023-04-12T20:13:32.831Z,14.11
2023-04-12T20:16:01.492Z,14.03
2023-04-12T20:18:30.552Z,14.06
2023-04-12T20:21:00.914Z,14.05
2023-04-12T20:23:28.309Z,14.06
2023-04-12T20:25:56.600Z,14.06
2023-04-12T20:28:25.977Z,14.03
2023-04-12T20:30:54.090Z,13.91
2023-04-12T20:33:22.033Z,13.94
2023-04-12T20:35:52.691Z,13.86
2023-04-12T20:38:21.068Z,13.72
2023-04-12T20:40:48.486Z,13.65
2023-04-12T20:43:16.093Z,13.75
2023-04-12T20:45:43.547Z,13.78
2023-04-12T20:48:11.906Z,13.78
2023-04-12T20:50:41.526Z,13.70
2023-04-12T20:53:16.063Z,13.71
2023-04-12T20:55:44.891Z,13.71
2023-04-12T20:58:16.565Z,13.69
2023-04-12T21:00:43.575Z,13.70
2023-04-12T21:03:12.545Z,13.72
2023-04-12T21:05:40.751Z,13.73
2023-04-12T21:08:07.767Z,13.76
2023-04-12T21:10:34.560Z,13.75
2023-04-12T21:13:03.074Z,13.70
2023-04-12T21:15:30.247Z,13.71
2023-04-12T21:17:57.794Z,13.59
2023-04-12T21:20:25.514Z,13.57
2023-04-12T21:22:52.425Z,13.49
2023-04-12T21:25:19.945Z,13.40
2023-04-12T21:27:47.738Z,13.40
2023-04-12T21:30:15.977Z,13.39
2023-04-12T21:32:44.040Z,13.37
2023-04-12T21:35:13.824Z,13.35
2023-04-12T21:37:41.095Z,13.25
2023-04-12T21:40:12.891Z,13.29
2023-04-12T21:42:43.274Z,13.22
2023-04-12T21:45:11.036Z,13.14
2023-04-12T21:47:40.726Z,13.13
2023-04-12T21:50:09.275Z,13.19
2023-04-12T21:52:36.541Z,13.21
2023-04-12T21:55:07.090Z,13.25
2023-04-12T21:57:35.041Z,13.28
2023-04-12T22:00:04.565Z,13.33
2023-04-12T22:02:38.857Z,13.27
2023-04-12T22:05:07.029Z,13.30
2023-04-12T22:07:33.937Z,13.29
2023-04-12T22:10:02.109Z,13.29
2023-04-12T22:16:28.979Z,13.41
2023-04-12T22:18:55.939Z,13.47
2023-04-12T22:21:22.884Z,13.52
2023-04-12T22:23:50.540Z,13.59
2023-04-12T22:26:17.228Z,13.63
2023-04-12T22:28:44.433Z,13.65
2023-04-12T22:35:10.966Z,13.76
2023-04-12T22:37:39.110Z,13.81
2023-04-12T22:40:11.431Z,13.86
2023-04-12T22:42:38.748Z,13.94
2023-04-12T22:45:07.748Z,13.98
2023-04-12T22:47:34.578Z,13.99
2023-04-12T22:50:02.906Z,14.07
2023-04-12T22:52:33.682Z,14.08
2023-04-12T22:55:00.450Z,14.09
2023-04-12T22:57:27.524Z,14.11
2023-04-12T22:59:54.280Z,14.13
2023-04-12T23:02:21.276Z,14.13
2023-04-12T23:04:49.297Z,14.14
2023-04-12T23:07:16.574Z,14.10
2023-04-12T23:09:45.257Z,14.17
2023-04-12T23:12:12.734Z,14.17
2023-04-12T23:14:40.024Z,14.17
2023-04-12T23:17:07.422Z,14.18
2023-04-12T23:23:34.655Z,14.17
2023-04-12T23:26:01.422Z,14.17
2023-04-12T23:28:28.598Z,14.15
2023-04-12T23:30:57.785Z,14.17
2023-04-12T23:33:25.265Z,14.22
2023-04-12T23:35:52.911Z,14.22
2023-04-12T23:38:24.464Z,14.21
2023-04-12T23:40:54.211Z,14.21
2023-04-12T23:43:22.918Z,14.21
2023-04-12T23:45:49.736Z,14.26
2023-04-12T23:48:16.712Z,14.32
2023-04-12T23:50:47.095Z,14.27
2023-04-12T23:53:14.883Z,14.24
2023-04-12T23:55:42.835Z,14.29
2023-04-12T23:58:10.424Z,14.24
